sensor_id;sensor_type;location;lat;lon;timestamp;P1;durP1;ratioP1;P2;durP2;ratioP2
23747;SDS011;12054;53.662;10.126;2023-01-19T00:01:43;17.40;;;9.20;;
23747;SDS011;12054;53.662;10.126;2023-01-19T00:04:08;17.05;;;10.07;;
23747;SDS011;12054;53.662;10.126;2023-01-19T00:06:34;14.73;;;9.15;;
23747;SDS011;12054;53.662;10.126;2023-01-19T00:08:59;16.50;;;9.68;;
23747;SDS011;12054;53.662;10.126;2023-01-19T00:11:25;17.63;;;8.80;;
23747;SDS011;12054;53.662;10.126;2023-01-19T00:13:51;17.73;;;10.30;;
23747;SDS011;12054;53.662;10.126;2023-01-19T00:16:17;18.45;;;9.05;;
23747;SDS011;12054;53.662;10.126;2023-01-19T00:18:45;19.30;;;9.45;;
23747;SDS011;12054;53.662;10.126;2023-01-19T00:21:11;17.50;;;9.00;;
23747;SDS011;12054;53.662;10.126;2023-01-19T00:23:40;20.02;;;10.65;;
23747;SDS011;12054;53.662;10.126;2023-01-19T00:26:07;15.07;;;8.43;;
23747;SDS011;12054;53.662;10.126;2023-01-19T00:28:34;20.05;;;11.02;;
23747;SDS011;12054;53.662;10.126;2023-01-19T00:31:00;16.02;;;7.80;;
23747;SDS011;12054;53.662;10.126;2023-01-19T00:33:25;19.48;;;10.07;;
23747;SDS011;12054;53.662;10.126;2023-01-19T00:35:51;19.45;;;10.15;;
23747;SDS011;12054;53.662;10.126;2023-01-19T00:38:18;22.85;;;11.95;;
23747;SDS011;12054;53.662;10.126;2023-01-19T00:40:45;21.52;;;11.98;;
23747;SDS011;12054;53.662;10.126;2023-01-19T00:43:10;17.38;;;9.30;;
23747;SDS011;12054;53.662;10.126;2023-01-19T00:45:36;25.38;;;12.07;;
23747;SDS011;12054;53.662;10.126;2023-01-19T00:48:01;14.75;;;8.02;;
23747;SDS011;12054;53.662;10.126;2023-01-19T00:50:28;12.18;;;6.28;;
23747;SDS011;12054;53.662;10.126;2023-01-19T00:52:55;15.90;;;8.25;;
23747;SDS011;12054;53.662;10.126;2023-01-19T00:55:22;20.33;;;11.02;;
23747;SDS011;12054;53.662;10.126;2023-01-19T00:57:48;17.80;;;8.98;;
23747;SDS011;12054;53.662;10.126;2023-01-19T01:00:17;17.48;;;11.50;;
23747;SDS011;12054;53.662;10.126;2023-01-19T01:02:44;20.05;;;10.80;;
23747;SDS011;12054;53.662;10.126;2023-01-19T01:05:10;15.32;;;8.45;;
23747;SDS011;12054;53.662;10.126;2023-01-19T01:07:37;18.08;;;10.82;;
23747;SDS011;12054;53.662;10.126;2023-01-19T01:12:36;18.10;;;11.07;;
23747;SDS011;12054;53.662;10.126;2023-01-19T01:15:03;20.52;;;10.95;;
23747;SDS011;12054;53.662;10.126;2023-01-19T01:17:30;17.52;;;10.77;;
23747;SDS011;12054;53.662;10.126;2023-01-19T01:19:56;16.58;;;9.65;;
23747;SDS011;12054;53.662;10.126;2023-01-19T01:22:21;16.92;;;9.63;;
23747;SDS011;12054;53.662;10.126;2023-01-19T01:24:46;16.83;;;10.45;;
23747;SDS011;12054;53.662;10.126;2023-01-19T01:27:12;14.82;;;7.95;;
23747;SDS011;12054;53.662;10.126;2023-01-19T01:29:38;15.18;;;8.52;;
23747;SDS011;12054;53.662;10.126;2023-01-19T01:32:05;14.25;;;8.40;;
23747;SDS011;12054;53.662;10.126;2023-01-19T01:34:31;13.10;;;8.20;;
23747;SDS011;12054;53.662;10.126;2023-01-19T01:36:57;21.23;;;11.90;;
23747;SDS011;12054;53.662;10.126;2023-01-19T01:39:22;19.80;;;10.52;;
23747;SDS011;12054;53.662;10.126;2023-01-19T01:41:48;18.42;;;10.77;;
23747;SDS011;12054;53.662;10.126;2023-01-19T01:47:14;17.90;;;10.63;;
23747;SDS011;12054;53.662;10.126;2023-01-19T01:52:25;12.85;;;7.45;;
23747;SDS011;12054;53.662;10.126;2023-01-19T01:54:52;19.92;;;11.18;;
23747;SDS011;12054;53.662;10.126;2023-01-19T01:57:18;14.90;;;9.20;;
23747;SDS011;12054;53.662;10.126;2023-01-19T01:59:45;16.38;;;8.77;;
23747;SDS011;12054;53.662;10.126;2023-01-19T02:02:19;23.15;;;11.45;;
23747;SDS011;12054;53.662;10.126;2023-01-19T02:05:09;16.63;;;9.95;;
23747;SDS011;12054;53.662;10.126;2023-01-19T02:08:00;15.98;;;7.10;;
23747;SDS011;12054;53.662;10.126;2023-01-19T02:10:50;21.67;;;11.40;;
23747;SDS011;12054;53.662;10.126;2023-01-19T02:13:36;17.85;;;11.68;;
23747;SDS011;12054;53.662;10.126;2023-01-19T02:16:07;22.67;;;11.35;;
23747;SDS011;12054;53.662;10.126;2023-01-19T02:18:33;20.48;;;10.75;;
23747;SDS011;12054;53.662;10.126;2023-01-19T02:23:43;18.70;;;11.55;;
23747;SDS011;12054;53.662;10.126;2023-01-19T02:26:12;14.85;;;9.23;;
23747;SDS011;12054;53.662;10.126;2023-01-19T02:28:42;17.75;;;10.55;;
23747;SDS011;12054;53.662;10.126;2023-01-19T02:31:12;18.23;;;10.68;;
23747;SDS011;12054;53.662;10.126;2023-01-19T02:33:39;18.35;;;9.73;;
23747;SDS011;12054;53.662;10.126;2023-01-19T02:36:05;20.00;;;11.10;;
23747;SDS011;12054;53.662;10.126;2023-01-19T02:38:33;18.38;;;11.20;;
23747;SDS011;12054;53.662;10.126;2023-01-19T02:41:00;17.15;;;10.55;;
23747;SDS011;12054;53.662;10.126;2023-01-19T02:43:29;14.38;;;8.20;;
23747;SDS011;12054;53.662;10.126;2023-01-19T02:45:56;16.05;;;8.70;;
23747;SDS011;12054;53.662;10.126;2023-01-19T02:48:21;20.20;;;12.20;;
23747;SDS011;12054;53.662;10.126;2023-01-19T02:50:49;19.17;;;10.45;;
23747;SDS011;12054;53.662;10.126;2023-01-19T02:53:43;19.90;;;11.27;;
23747;SDS011;12054;53.662;10.126;2023-01-19T03:07:29;14.98;;;9.15;;
23747;SDS011;12054;53.662;10.126;2023-01-19T03:10:30;17.80;;;10.80;;
23747;SDS011;12054;53.662;10.126;2023-01-19T03:16:22;16.63;;;10.98;;
23747;SDS011;12054;53.662;10.126;2023-01-19T03:18:58;18.20;;;9.73;;
23747;SDS011;12054;53.662;10.126;2023-01-19T03:21:40;15.68;;;8.98;;
23747;SDS011;12054;53.662;10.126;2023-01-19T03:24:09;18.27;;;11.38;;
23747;SDS011;12054;53.662;10.126;2023-01-19T03:26:42;13.38;;;8.32;;
23747;SDS011;12054;53.662;10.126;2023-01-19T03:29:11;17.60;;;10.35;;
23747;SDS011;12054;53.662;10.126;2023-01-19T03:31:39;14.60;;;7.22;;
23747;SDS011;12054;53.662;10.126;2023-01-19T03:34:08;20.75;;;10.57;;
23747;SDS011;12054;53.662;10.126;2023-01-19T03:36:44;20.48;;;11.75;;
23747;SDS011;12054;53.662;10.126;2023-01-19T03:39:13;20.95;;;12.48;;
23747;SDS011;12054;53.662;10.126;2023-01-19T03:41:46;18.38;;;11.30;;
23747;SDS011;12054;53.662;10.126;2023-01-19T03:44:13;16.50;;;10.55;;
23747;SDS011;12054;53.662;10.126;2023-01-19T03:46:40;19.35;;;12.02;;
23747;SDS011;12054;53.662;10.126;2023-01-19T03:49:06;18.08;;;10.65;;
23747;SDS011;12054;53.662;10.126;2023-01-19T03:51:36;18.88;;;11.82;;
23747;SDS011;12054;53.662;10.126;2023-01-19T03:54:03;17.17;;;11.00;;
23747;SDS011;12054;53.662;10.126;2023-01-19T03:56:33;19.42;;;11.07;;
23747;SDS011;12054;53.662;10.126;2023-01-19T03:58:59;19.70;;;11.55;;
23747;SDS011;12054;53.662;10.126;2023-01-19T04:01:24;19.20;;;11.18;;
23747;SDS011;12054;53.662;10.126;2023-01-19T04:03:51;16.67;;;10.32;;
23747;SDS011;12054;53.662;10.126;2023-01-19T04:06:17;18.23;;;11.63;;
23747;SDS011;12054;53.662;10.126;2023-01-19T04:08:44;15.68;;;9.73;;
23747;SDS011;12054;53.662;10.126;2023-01-19T04:11:12;19.95;;;11.82;;
23747;SDS011;12054;53.662;10.126;2023-01-19T04:13:38;15.65;;;9.65;;
23747;SDS011;12054;53.662;10.126;2023-01-19T04:16:04;21.73;;;11.98;;
23747;SDS011;12054;53.662;10.126;2023-01-19T04:18:30;18.27;;;11.73;;
23747;SDS011;12054;53.662;10.126;2023-01-19T04:21:03;22.08;;;11.90;;
23747;SDS011;12054;53.662;10.126;2023-01-19T04:23:31;25.35;;;12.50;;
23747;SDS011;12054;53.662;10.126;2023-01-19T04:25:58;18.05;;;11.27;;
23747;SDS011;12054;53.662;10.126;2023-01-19T04:28:28;20.67;;;12.82;;
23747;SDS011;12054;53.662;10.126;2023-01-19T04:30:54;19.50;;;11.82;;
23747;SDS011;12054;53.662;10.126;2023-01-19T04:33:20;21.58;;;11.85;;
23747;SDS011;12054;53.662;10.126;2023-01-19T04:35:46;21.52;;;11.63;;
23747;SDS011;12054;53.662;10.126;2023-01-19T04:38:13;17.13;;;10.10;;
23747;SDS011;12054;53.662;10.126;2023-01-19T04:40:39;19.15;;;11.85;;
23747;SDS011;12054;53.662;10.126;2023-01-19T04:43:05;22.85;;;12.95;;
23747;SDS011;12054;53.662;10.126;2023-01-19T04:45:30;23.08;;;13.18;;
23747;SDS011;12054;53.662;10.126;2023-01-19T04:47:56;18.05;;;11.38;;
23747;SDS011;12054;53.662;10.126;2023-01-19T04:50:22;18.98;;;12.05;;
23747;SDS011;12054;53.662;10.126;2023-01-19T04:52:47;20.92;;;11.93;;
23747;SDS011;12054;53.662;10.126;2023-01-19T04:55:13;16.88;;;10.35;;
23747;SDS011;12054;53.662;10.126;2023-01-19T04:57:39;21.13;;;13.13;;
23747;SDS011;12054;53.662;10.126;2023-01-19T05:00:05;23.40;;;13.85;;
23747;SDS011;12054;53.662;10.126;2023-01-19T05:02:31;24.00;;;12.80;;
23747;SDS011;12054;53.662;10.126;2023-01-19T05:04:57;23.25;;;13.48;;
23747;SDS011;12054;53.662;10.126;2023-01-19T05:07:23;23.00;;;11.82;;
23747;SDS011;12054;53.662;10.126;2023-01-19T05:09:48;22.33;;;12.65;;
23747;SDS011;12054;53.662;10.126;2023-01-19T05:12:14;20.85;;;13.43;;
23747;SDS011;12054;53.662;10.126;2023-01-19T05:14:40;23.05;;;14.40;;
23747;SDS011;12054;53.662;10.126;2023-01-19T05:17:05;19.38;;;12.75;;
23747;SDS011;12054;53.662;10.126;2023-01-19T05:19:31;25.45;;;14.73;;
23747;SDS011;12054;53.662;10.126;2023-01-19T05:21:56;24.23;;;14.40;;
23747;SDS011;12054;53.662;10.126;2023-01-19T05:24:22;25.42;;;14.13;;
23747;SDS011;12054;53.662;10.126;2023-01-19T05:26:47;22.52;;;12.20;;
23747;SDS011;12054;53.662;10.126;2023-01-19T05:29:13;24.15;;;13.50;;
23747;SDS011;12054;53.662;10.126;2023-01-19T05:31:38;22.33;;;11.73;;
23747;SDS011;12054;53.662;10.126;2023-01-19T05:34:04;24.08;;;13.88;;
23747;SDS011;12054;53.662;10.126;2023-01-19T05:36:30;22.65;;;13.73;;
23747;SDS011;12054;53.662;10.126;2023-01-19T05:38:56;22.23;;;13.10;;
23747;SDS011;12054;53.662;10.126;2023-01-19T05:41:21;23.50;;;13.90;;
23747;SDS011;12054;53.662;10.126;2023-01-19T05:43:47;26.25;;;13.60;;
23747;SDS011;12054;53.662;10.126;2023-01-19T05:46:13;23.80;;;13.52;;
23747;SDS011;12054;53.662;10.126;2023-01-19T05:48:38;23.10;;;13.80;;
23747;SDS011;12054;53.662;10.126;2023-01-19T05:51:04;22.55;;;14.52;;
23747;SDS011;12054;53.662;10.126;2023-01-19T05:53:30;25.15;;;13.32;;
23747;SDS011;12054;53.662;10.126;2023-01-19T05:55:59;22.42;;;14.07;;
23747;SDS011;12054;53.662;10.126;2023-01-19T05:58:29;23.88;;;14.85;;
23747;SDS011;12054;53.662;10.126;2023-01-19T06:00:56;25.60;;;13.82;;
23747;SDS011;12054;53.662;10.126;2023-01-19T06:03:25;23.42;;;12.85;;
23747;SDS011;12054;53.662;10.126;2023-01-19T06:05:51;21.45;;;11.65;;
23747;SDS011;12054;53.662;10.126;2023-01-19T06:08:16;23.05;;;13.55;;
23747;SDS011;12054;53.662;10.126;2023-01-19T06:10:42;25.10;;;15.35;;
23747;SDS011;12054;53.662;10.126;2023-01-19T06:13:08;24.30;;;14.02;;
23747;SDS011;12054;53.662;10.126;2023-01-19T06:15:35;23.85;;;13.45;;
23747;SDS011;12054;53.662;10.126;2023-01-19T06:18:01;22.90;;;13.35;;
23747;SDS011;12054;53.662;10.126;2023-01-19T06:20:26;25.42;;;13.43;;
23747;SDS011;12054;53.662;10.126;2023-01-19T06:22:55;23.92;;;14.18;;
23747;SDS011;12054;53.662;10.126;2023-01-19T06:25:21;25.52;;;14.50;;
23747;SDS011;12054;53.662;10.126;2023-01-19T06:27:46;22.88;;;15.00;;
23747;SDS011;12054;53.662;10.126;2023-01-19T06:30:12;24.42;;;14.98;;
23747;SDS011;12054;53.662;10.126;2023-01-19T06:32:38;22.83;;;14.63;;
23747;SDS011;12054;53.662;10.126;2023-01-19T06:35:04;28.52;;;14.95;;
23747;SDS011;12054;53.662;10.126;2023-01-19T06:37:31;22.55;;;13.75;;
23747;SDS011;12054;53.662;10.126;2023-01-19T06:39:58;21.63;;;13.20;;
23747;SDS011;12054;53.662;10.126;2023-01-19T06:42:24;22.30;;;14.73;;
23747;SDS011;12054;53.662;10.126;2023-01-19T06:44:49;23.73;;;14.00;;
23747;SDS011;12054;53.662;10.126;2023-01-19T06:47:15;25.00;;;13.80;;
23747;SDS011;12054;53.662;10.126;2023-01-19T06:49:41;22.73;;;13.93;;
23747;SDS011;12054;53.662;10.126;2023-01-19T06:52:10;22.35;;;12.43;;
23747;SDS011;12054;53.662;10.126;2023-01-19T06:54:39;19.35;;;13.07;;
23747;SDS011;12054;53.662;10.126;2023-01-19T06:57:07;21.60;;;13.95;;
23747;SDS011;12054;53.662;10.126;2023-01-19T06:59:32;19.40;;;12.90;;
23747;SDS011;12054;53.662;10.126;2023-01-19T07:01:58;19.58;;;12.40;;
23747;SDS011;12054;53.662;10.126;2023-01-19T07:04:23;22.58;;;13.57;;
23747;SDS011;12054;53.662;10.126;2023-01-19T07:06:49;18.55;;;12.25;;
23747;SDS011;12054;53.662;10.126;2023-01-19T07:09:15;18.58;;;11.52;;
23747;SDS011;12054;53.662;10.126;2023-01-19T07:11:41;22.83;;;13.55;;
23747;SDS011;12054;53.662;10.126;2023-01-19T07:14:06;20.95;;;13.32;;
23747;SDS011;12054;53.662;10.126;2023-01-19T07:16:32;21.55;;;13.07;;
23747;SDS011;12054;53.662;10.126;2023-01-19T07:18:57;20.20;;;12.88;;
23747;SDS011;12054;53.662;10.126;2023-01-19T07:21:23;22.05;;;14.52;;
23747;SDS011;12054;53.662;10.126;2023-01-19T07:23:49;19.65;;;12.80;;
23747;SDS011;12054;53.662;10.126;2023-01-19T07:26:16;23.33;;;14.13;;
23747;SDS011;12054;53.662;10.126;2023-01-19T07:28:45;21.80;;;14.00;;
23747;SDS011;12054;53.662;10.126;2023-01-19T07:31:11;22.08;;;13.23;;
23747;SDS011;12054;53.662;10.126;2023-01-19T07:33:37;19.27;;;12.48;;
23747;SDS011;12054;53.662;10.126;2023-01-19T07:36:03;21.30;;;12.38;;
23747;SDS011;12054;53.662;10.126;2023-01-19T07:38:29;25.88;;;14.13;;
23747;SDS011;12054;53.662;10.126;2023-01-19T07:41:01;23.45;;;14.50;;
23747;SDS011;12054;53.662;10.126;2023-01-19T07:43:27;23.02;;;12.60;;
23747;SDS011;12054;53.662;10.126;2023-01-19T07:45:56;18.98;;;12.27;;
23747;SDS011;12054;53.662;10.126;2023-01-19T07:48:23;21.02;;;13.32;;
23747;SDS011;12054;53.662;10.126;2023-01-19T07:50:49;22.80;;;14.15;;
23747;SDS011;12054;53.662;10.126;2023-01-19T07:53:15;21.63;;;12.70;;
23747;SDS011;12054;53.662;10.126;2023-01-19T07:55:41;23.73;;;13.73;;
23747;SDS011;12054;53.662;10.126;2023-01-19T07:58:07;22.45;;;13.02;;
23747;SDS011;12054;53.662;10.126;2023-01-19T08:00:33;24.42;;;12.88;;
23747;SDS011;12054;53.662;10.126;2023-01-19T08:03:00;21.67;;;12.88;;
23747;SDS011;12054;53.662;10.126;2023-01-19T08:05:27;27.80;;;15.00;;
23747;SDS011;12054;53.662;10.126;2023-01-19T08:07:53;22.95;;;14.70;;
23747;SDS011;12054;53.662;10.126;2023-01-19T08:10:21;22.20;;;12.85;;
23747;SDS011;12054;53.662;10.126;2023-01-19T08:12:49;19.65;;;12.07;;
23747;SDS011;12054;53.662;10.126;2023-01-19T08:15:15;21.50;;;13.45;;
23747;SDS011;12054;53.662;10.126;2023-01-19T08:17:41;25.73;;;15.23;;
23747;SDS011;12054;53.662;10.126;2023-01-19T08:20:07;22.88;;;12.43;;
23747;SDS011;12054;53.662;10.126;2023-01-19T08:22:33;21.27;;;12.60;;
23747;SDS011;12054;53.662;10.126;2023-01-19T08:24:59;21.85;;;12.55;;
23747;SDS011;12054;53.662;10.126;2023-01-19T08:27:24;26.20;;;14.50;;
23747;SDS011;12054;53.662;10.126;2023-01-19T08:29:50;21.77;;;13.55;;
23747;SDS011;12054;53.662;10.126;2023-01-19T08:32:15;23.27;;;12.45;;
23747;SDS011;12054;53.662;10.126;2023-01-19T08:34:41;25.50;;;13.93;;
23747;SDS011;12054;53.662;10.126;2023-01-19T08:37:06;25.65;;;14.40;;
23747;SDS011;12054;53.662;10.126;2023-01-19T08:39:32;23.05;;;14.18;;
23747;SDS011;12054;53.662;10.126;2023-01-19T08:41:57;25.65;;;15.02;;
23747;SDS011;12054;53.662;10.126;2023-01-19T08:44:24;26.85;;;13.98;;
23747;SDS011;12054;53.662;10.126;2023-01-19T08:46:50;27.63;;;14.90;;
23747;SDS011;12054;53.662;10.126;2023-01-19T08:49:16;25.00;;;13.30;;
23747;SDS011;12054;53.662;10.126;2023-01-19T08:51:41;22.38;;;12.68;;
23747;SDS011;12054;53.662;10.126;2023-01-19T08:54:10;22.60;;;13.15;;
23747;SDS011;12054;53.662;10.126;2023-01-19T08:56:35;22.65;;;13.38;;
23747;SDS011;12054;53.662;10.126;2023-01-19T08:59:01;17.75;;;10.95;;
23747;SDS011;12054;53.662;10.126;2023-01-19T09:01:26;25.55;;;13.52;;
23747;SDS011;12054;53.662;10.126;2023-01-19T09:03:52;22.15;;;14.07;;
23747;SDS011;12054;53.662;10.126;2023-01-19T09:06:18;23.58;;;14.00;;
23747;SDS011;12054;53.662;10.126;2023-01-19T09:08:44;23.17;;;13.38;;
23747;SDS011;12054;53.662;10.126;2023-01-19T09:11:11;21.35;;;12.40;;
23747;SDS011;12054;53.662;10.126;2023-01-19T09:13:38;21.17;;;12.18;;
23747;SDS011;12054;53.662;10.126;2023-01-19T09:16:05;23.27;;;13.45;;
23747;SDS011;12054;53.662;10.126;2023-01-19T09:18:32;24.50;;;13.02;;
23747;SDS011;12054;53.662;10.126;2023-01-19T09:20:58;22.30;;;13.50;;
23747;SDS011;12054;53.662;10.126;2023-01-19T09:23:25;21.40;;;13.45;;
23747;SDS011;12054;53.662;10.126;2023-01-19T09:25:54;24.80;;;13.60;;
23747;SDS011;12054;53.662;10.126;2023-01-19T09:28:21;22.90;;;13.63;;
23747;SDS011;12054;53.662;10.126;2023-01-19T09:30:46;21.40;;;12.23;;
23747;SDS011;12054;53.662;10.126;2023-01-19T09:33:13;26.70;;;14.52;;
23747;SDS011;12054;53.662;10.126;2023-01-19T09:35:41;28.60;;;15.38;;
23747;SDS011;12054;53.662;10.126;2023-01-19T09:38:08;24.33;;;14.65;;
23747;SDS011;12054;53.662;10.126;2023-01-19T09:40:41;26.00;;;15.70;;
23747;SDS011;12054;53.662;10.126;2023-01-19T09:45:44;24.17;;;13.77;;
23747;SDS011;12054;53.662;10.126;2023-01-19T09:48:47;25.58;;;15.13;;
23747;SDS011;12054;53.662;10.126;2023-01-19T09:51:18;30.40;;;15.93;;
23747;SDS011;12054;53.662;10.126;2023-01-19T09:56:19;23.75;;;14.18;;
23747;SDS011;12054;53.662;10.126;2023-01-19T09:58:46;24.83;;;13.88;;
23747;SDS011;12054;53.662;10.126;2023-01-19T10:07:05;27.70;;;16.20;;
23747;SDS011;12054;53.662;10.126;2023-01-19T10:09:39;26.20;;;15.60;;
23747;SDS011;12054;53.662;10.126;2023-01-19T10:14:58;32.03;;;17.25;;
23747;SDS011;12054;53.662;10.126;2023-01-19T10:20:47;28.77;;;16.05;;
23747;SDS011;12054;53.662;10.126;2023-01-19T10:26:01;30.13;;;16.20;;
23747;SDS011;12054;53.662;10.126;2023-01-19T10:28:37;28.35;;;15.48;;
23747;SDS011;12054;53.662;10.126;2023-01-19T10:31:04;25.67;;;15.35;;
23747;SDS011;12054;53.662;10.126;2023-01-19T10:33:31;32.13;;;17.00;;
23747;SDS011;12054;53.662;10.126;2023-01-19T10:35:58;29.20;;;15.82;;
23747;SDS011;12054;53.662;10.126;2023-01-19T10:38:28;27.00;;;15.00;;
23747;SDS011;12054;53.662;10.126;2023-01-19T10:40:57;24.50;;;13.63;;
23747;SDS011;12054;53.662;10.126;2023-01-19T10:43:37;28.00;;;15.65;;
23747;SDS011;12054;53.662;10.126;2023-01-19T10:49:21;17.88;;;10.73;;
23747;SDS011;12054;53.662;10.126;2023-01-19T10:51:47;25.42;;;15.25;;
23747;SDS011;12054;53.662;10.126;2023-01-19T10:54:13;26.45;;;15.23;;
23747;SDS011;12054;53.662;10.126;2023-01-19T10:56:39;22.20;;;13.73;;
23747;SDS011;12054;53.662;10.126;2023-01-19T10:59:25;24.80;;;14.60;;
23747;SDS011;12054;53.662;10.126;2023-01-19T11:02:13;26.55;;;14.98;;
23747;SDS011;12054;53.662;10.126;2023-01-19T11:04:52;23.05;;;14.30;;
23747;SDS011;12054;53.662;10.126;2023-01-19T11:07:38;25.02;;;15.18;;
23747;SDS011;12054;53.662;10.126;2023-01-19T11:13:03;27.38;;;14.85;;
23747;SDS011;12054;53.662;10.126;2023-01-19T11:18:30;23.27;;;13.70;;
23747;SDS011;12054;53.662;10.126;2023-01-19T11:21:07;20.38;;;12.73;;
23747;SDS011;12054;53.662;10.126;2023-01-19T11:23:36;22.20;;;13.15;;
23747;SDS011;12054;53.662;10.126;2023-01-19T11:26:06;19.88;;;12.38;;
23747;SDS011;12054;53.662;10.126;2023-01-19T11:28:38;23.45;;;12.13;;
23747;SDS011;12054;53.662;10.126;2023-01-19T11:33:38;23.58;;;13.43;;
23747;SDS011;12054;53.662;10.126;2023-01-19T11:36:15;23.92;;;13.65;;
23747;SDS011;12054;53.662;10.126;2023-01-19T11:41:36;21.98;;;13.30;;
23747;SDS011;12054;53.662;10.126;2023-01-19T11:44:15;23.27;;;13.82;;
23747;SDS011;12054;53.662;10.126;2023-01-19T11:46:45;21.75;;;13.38;;
23747;SDS011;12054;53.662;10.126;2023-01-19T11:54:56;21.63;;;12.95;;
23747;SDS011;12054;53.662;10.126;2023-01-19T11:57:25;24.15;;;13.43;;
23747;SDS011;12054;53.662;10.126;2023-01-19T11:59:52;23.58;;;14.20;;
23747;SDS011;12054;53.662;10.126;2023-01-19T12:04:50;22.83;;;12.43;;
23747;SDS011;12054;53.662;10.126;2023-01-19T12:07:22;19.15;;;11.95;;
23747;SDS011;12054;53.662;10.126;2023-01-19T12:09:55;23.95;;;13.88;;
23747;SDS011;12054;53.662;10.126;2023-01-19T12:12:31;22.17;;;13.40;;
23747;SDS011;12054;53.662;10.126;2023-01-19T12:17:53;21.30;;;12.27;;
23747;SDS011;12054;53.662;10.126;2023-01-19T12:20:26;23.85;;;12.48;;
23747;SDS011;12054;53.662;10.126;2023-01-19T12:28:27;24.40;;;14.27;;
23747;SDS011;12054;53.662;10.126;2023-01-19T12:30:57;26.00;;;13.93;;
23747;SDS011;12054;53.662;10.126;2023-01-19T12:35:56;22.13;;;12.25;;
23747;SDS011;12054;53.662;10.126;2023-01-19T12:38:58;21.17;;;11.40;;
23747;SDS011;12054;53.662;10.126;2023-01-19T12:41:24;21.48;;;11.73;;
23747;SDS011;12054;53.662;10.126;2023-01-19T12:46:42;22.27;;;11.57;;
23747;SDS011;12054;53.662;10.126;2023-01-19T12:54:48;19.25;;;10.95;;
23747;SDS011;12054;53.662;10.126;2023-01-19T13:02:47;21.42;;;11.85;;
23747;SDS011;12054;53.662;10.126;2023-01-19T13:05:23;20.40;;;11.05;;
23747;SDS011;12054;53.662;10.126;2023-01-19T13:18:46;18.73;;;10.52;;
23747;SDS011;12054;53.662;10.126;2023-01-19T13:23:59;20.50;;;12.68;;
23747;SDS011;12054;53.662;10.126;2023-01-19T13:26:31;21.25;;;11.70;;
23747;SDS011;12054;53.662;10.126;2023-01-19T13:29:04;19.05;;;11.05;;
23747;SDS011;12054;53.662;10.126;2023-01-19T13:31:33;20.08;;;11.63;;
23747;SDS011;12054;53.662;10.126;2023-01-19T13:34:00;20.80;;;11.77;;
23747;SDS011;12054;53.662;10.126;2023-01-19T13:36:30;21.08;;;11.50;;
23747;SDS011;12054;53.662;10.126;2023-01-19T13:39:02;19.63;;;12.10;;
23747;SDS011;12054;53.662;10.126;2023-01-19T13:41:31;22.05;;;12.52;;
23747;SDS011;12054;53.662;10.126;2023-01-19T13:44:03;21.00;;;12.23;;
23747;SDS011;12054;53.662;10.126;2023-01-19T13:46:41;22.88;;;12.52;;
23747;SDS011;12054;53.662;10.126;2023-01-19T13:49:13;21.90;;;11.70;;
23747;SDS011;12054;53.662;10.126;2023-01-19T13:52:13;21.33;;;11.95;;
23747;SDS011;12054;53.662;10.126;2023-01-19T13:54:50;20.48;;;12.07;;
23747;SDS011;12054;53.662;10.126;2023-01-19T13:57:26;21.88;;;11.35;;
23747;SDS011;12054;53.662;10.126;2023-01-19T14:00:06;19.75;;;10.95;;
23747;SDS011;12054;53.662;10.126;2023-01-19T14:05:32;19.45;;;11.68;;
23747;SDS011;12054;53.662;10.126;2023-01-19T14:10:43;20.25;;;10.85;;
23747;SDS011;12054;53.662;10.126;2023-01-19T14:13:18;20.27;;;10.35;;
23747;SDS011;12054;53.662;10.126;2023-01-19T14:15:54;19.27;;;11.27;;
23747;SDS011;12054;53.662;10.126;2023-01-19T14:18:23;20.13;;;10.88;;
23747;SDS011;12054;53.662;10.126;2023-01-19T14:21:04;22.08;;;11.10;;
23747;SDS011;12054;53.662;10.126;2023-01-19T14:29:09;21.10;;;11.38;;
23747;SDS011;12054;53.662;10.126;2023-01-19T14:31:43;19.00;;;10.80;;
23747;SDS011;12054;53.662;10.126;2023-01-19T14:36:58;22.17;;;11.30;;
23747;SDS011;12054;53.662;10.126;2023-01-19T14:39:25;19.23;;;11.07;;
23747;SDS011;12054;53.662;10.126;2023-01-19T14:41:52;18.45;;;10.50;;
23747;SDS011;12054;53.662;10.126;2023-01-19T14:46:54;19.23;;;10.38;;
23747;SDS011;12054;53.662;10.126;2023-01-19T14:49:23;21.17;;;11.02;;
23747;SDS011;12054;53.662;10.126;2023-01-19T14:52:02;21.77;;;10.43;;
23747;SDS011;12054;53.662;10.126;2023-01-19T14:54:34;20.48;;;10.18;;
23747;SDS011;12054;53.662;10.126;2023-01-19T14:57:07;19.38;;;10.35;;
23747;SDS011;12054;53.662;10.126;2023-01-19T14:59:36;17.77;;;9.35;;
23747;SDS011;12054;53.662;10.126;2023-01-19T15:02:01;16.50;;;8.10;;
23747;SDS011;12054;53.662;10.126;2023-01-19T15:04:27;14.63;;;7.47;;
23747;SDS011;12054;53.662;10.126;2023-01-19T15:06:53;13.48;;;7.53;;
23747;SDS011;12054;53.662;10.126;2023-01-19T15:09:19;12.43;;;7.53;;
23747;SDS011;12054;53.662;10.126;2023-01-19T15:11:45;15.77;;;7.53;;
23747;SDS011;12054;53.662;10.126;2023-01-19T15:14:13;16.30;;;6.93;;
23747;SDS011;12054;53.662;10.126;2023-01-19T15:16:39;15.63;;;7.20;;
23747;SDS011;12054;53.662;10.126;2023-01-19T15:19:07;15.60;;;7.55;;
23747;SDS011;12054;53.662;10.126;2023-01-19T15:21:35;12.40;;;7.00;;
23747;SDS011;12054;53.662;10.126;2023-01-19T15:24:01;19.42;;;8.85;;
23747;SDS011;12054;53.662;10.126;2023-01-19T15:26:26;17.20;;;8.23;;
23747;SDS011;12054;53.662;10.126;2023-01-19T15:28:52;15.05;;;7.80;;
23747;SDS011;12054;53.662;10.126;2023-01-19T15:31:21;15.10;;;7.80;;
23747;SDS011;12054;53.662;10.126;2023-01-19T15:33:48;14.10;;;7.97;;
23747;SDS011;12054;53.662;10.126;2023-01-19T15:36:15;14.60;;;8.43;;
23747;SDS011;12054;53.662;10.126;2023-01-19T15:38:45;16.20;;;7.97;;
23747;SDS011;12054;53.662;10.126;2023-01-19T15:41:16;15.18;;;7.63;;
23747;SDS011;12054;53.662;10.126;2023-01-19T15:43:47;14.57;;;7.82;;
23747;SDS011;12054;53.662;10.126;2023-01-19T15:46:14;15.88;;;7.70;;
23747;SDS011;12054;53.662;10.126;2023-01-19T15:48:46;12.40;;;7.22;;
23747;SDS011;12054;53.662;10.126;2023-01-19T15:51:16;17.20;;;7.57;;
23747;SDS011;12054;53.662;10.126;2023-01-19T15:53:43;15.82;;;7.13;;
23747;SDS011;12054;53.662;10.126;2023-01-19T15:56:16;17.73;;;8.13;;
23747;SDS011;12054;53.662;10.126;2023-01-19T15:58:47;14.90;;;7.38;;
23747;SDS011;12054;53.662;10.126;2023-01-19T16:01:16;17.55;;;7.80;;
23747;SDS011;12054;53.662;10.126;2023-01-19T16:03:44;17.45;;;8.05;;
23747;SDS011;12054;53.662;10.126;2023-01-19T16:06:10;19.92;;;8.30;;
23747;SDS011;12054;53.662;10.126;2023-01-19T16:08:37;23.38;;;9.43;;
23747;SDS011;12054;53.662;10.126;2023-01-19T16:11:06;26.23;;;11.40;;
23747;SDS011;12054;53.662;10.126;2023-01-19T16:13:33;22.55;;;9.93;;
23747;SDS011;12054;53.662;10.126;2023-01-19T16:16:02;20.02;;;8.95;;
23747;SDS011;12054;53.662;10.126;2023-01-19T16:18:28;17.40;;;8.10;;
23747;SDS011;12054;53.662;10.126;2023-01-19T16:20:53;17.73;;;8.20;;
23747;SDS011;12054;53.662;10.126;2023-01-19T16:23:19;19.45;;;10.15;;